• 1
  • 2
  • 1

 

 

 
NEU! ab. 1.4.
Nortel Info 128,740 MHz

WebCam

  
Kamera Halle
Kamera Vorfeld
Wetter EDDS

METAR

EDDS 272050Z VRB01KT CAVOK 21/16 Q1017 =


TAF

EDDS 271700Z 2718/2818 VRB03KT 9999 FEW045 BECMG 2807/2810 05006KT =


SR/SS

03:26 / 19:10 UTC
(EDSO 27-05-2018)